logo
Search for airport 
image banner adimage banner adimage banner ad
image banner ad

SWUL - Fazenda Furna Azul

Located in Ananas, Brazil

ICAO - SWUL, IATA -

Data provided by Airmate  

General information

Coordinates: S6°12'57" W48°25'33"
Elevation is 387 feet MSL.
Magnetic variation is -20.989642589° East
View others Airports in Tocatins

Operational data

Special qualification required
Current time UTC:
Current local time:
Weather at : - ( 0 km )
METAR: KUKF 220810Z AUTO 00000KT 2SM BR CLR 16/16 A3009 RMK AO2 VIS 1V5
View NOTAMs / SUP AIP / TFR affecting this airport [VIEW]
Communications frequencies: [VIEW]

Runways:

RWY identifierQFULength (ft)Width (ft)SurfaceLDA (ft)
16328182GRAVEL
34328182GRAVEL

Airport contact information

Address: Ananas Brazil

Satellite view of SWUL